sensor_id;sensor_type;location;lat;lon;timestamp;pressure;altitude;pressure_sealevel;temperature;humidity
19086;BME280;9675;51.538;6.728;2024-01-16T00:02:02;100527.88;;;1.11;100.00
19086;BME280;9675;51.538;6.728;2024-01-16T00:04:29;100521.03;;;1.10;100.00
19086;BME280;9675;51.538;6.728;2024-01-16T00:06:58;100525.34;;;1.11;100.00
19086;BME280;9675;51.538;6.728;2024-01-16T00:09:26;100522.94;;;1.12;100.00
19086;BME280;9675;51.538;6.728;2024-01-16T00:11:53;100527.25;;;1.13;100.00
19086;BME280;9675;51.538;6.728;2024-01-16T00:14:20;100518.63;;;1.11;100.00
19086;BME280;9675;51.538;6.728;2024-01-16T00:16:47;100522.69;;;1.09;100.00
19086;BME280;9675;51.538;6.728;2024-01-16T00:19:14;100526.25;;;1.11;100.00
19086;BME280;9675;51.538;6.728;2024-01-16T00:21:43;100532.06;;;1.10;100.00
19086;BME280;9675;51.538;6.728;2024-01-16T00:24:13;100533.84;;;1.11;100.00
19086;BME280;9675;51.538;6.728;2024-01-16T00:26:40;100521.91;;;1.10;100.00
19086;BME280;9675;51.538;6.728;2024-01-16T00:29:07;100527.00;;;1.10;100.00
19086;BME280;9675;51.538;6.728;2024-01-16T00:31:35;100542.22;;;1.10;100.00
19086;BME280;9675;51.538;6.728;2024-01-16T00:34:02;100536.25;;;1.10;100.00
19086;BME280;9675;51.538;6.728;2024-01-16T00:36:29;100537.03;;;1.09;100.00
19086;BME280;9675;51.538;6.728;2024-01-16T00:38:56;100536.16;;;1.08;100.00
19086;BME280;9675;51.538;6.728;2024-01-16T00:41:25;100540.44;;;1.09;100.00
19086;BME280;9675;51.538;6.728;2024-01-16T00:43:52;100545.50;;;1.09;100.00
19086;BME280;9675;51.538;6.728;2024-01-16T00:46:19;100549.56;;;1.07;100.00
19086;BME280;9675;51.538;6.728;2024-01-16T00:48:47;100559.72;;;1.07;100.00
19086;BME280;9675;51.538;6.728;2024-01-16T00:51:14;100542.59;;;1.05;100.00
19086;BME280;9675;51.538;6.728;2024-01-16T00:53:41;100549.19;;;1.03;100.00
19086;BME280;9675;51.538;6.728;2024-01-16T00:56:09;100547.03;;;1.07;100.00
19086;BME280;9675;51.538;6.728;2024-01-16T00:58:37;100564.03;;;1.08;100.00
19086;BME280;9675;51.538;6.728;2024-01-16T01:01:05;100555.41;;;1.06;100.00
19086;BME280;9675;51.538;6.728;2024-01-16T01:03:32;100561.22;;;1.05;100.00
19086;BME280;9675;51.538;6.728;2024-01-16T01:06:00;100558.69;;;1.05;100.00
19086;BME280;9675;51.538;6.728;2024-01-16T01:08:27;100560.34;;;1.05;100.00
19086;BME280;9675;51.538;6.728;2024-01-16T01:10:54;100566.94;;;1.03;100.00
19086;BME280;9675;51.538;6.728;2024-01-16T01:13:22;100564.66;;;1.06;100.00
19086;BME280;9675;51.538;6.728;2024-01-16T01:15:52;100564.78;;;1.07;100.00
19086;BME280;9675;51.538;6.728;2024-01-16T01:18:19;100570.59;;;1.06;100.00
19086;BME280;9675;51.538;6.728;2024-01-16T01:20:47;100572.38;;;1.07;100.00
19086;BME280;9675;51.538;6.728;2024-01-16T01:23:14;100573.91;;;1.05;100.00
19086;BME280;9675;51.538;6.728;2024-01-16T01:25:41;100587.31;;;1.04;100.00
19086;BME280;9675;51.538;6.728;2024-01-16T01:28:08;100571.22;;;1.04;100.00
19086;BME280;9675;51.538;6.728;2024-01-16T01:30:36;100582.25;;;1.04;100.00
19086;BME280;9675;51.538;6.728;2024-01-16T01:33:05;100585.31;;;1.00;100.00
19086;BME280;9675;51.538;6.728;2024-01-16T01:35:32;100582.91;;;1.02;100.00
19086;BME280;9675;51.538;6.728;2024-01-16T01:37:59;100586.34;;;1.02;100.00
19086;BME280;9675;51.538;6.728;2024-01-16T01:40:26;100582.03;;;1.01;100.00
19086;BME280;9675;51.538;6.728;2024-01-16T01:42:53;100587.84;;;1.00;100.00
19086;BME280;9675;51.538;6.728;2024-01-16T01:45:20;100585.31;;;1.00;100.00
19086;BME280;9675;51.538;6.728;2024-01-16T01:47:48;100583.53;;;0.99;100.00
19086;BME280;9675;51.538;6.728;2024-01-16T01:50:17;100585.31;;;1.00;100.00
19086;BME280;9675;51.538;6.728;2024-01-16T01:52:45;100587.09;;;1.01;100.00
19086;BME280;9675;51.538;6.728;2024-01-16T01:55:14;100587.09;;;1.01;100.00
19086;BME280;9675;51.538;6.728;2024-01-16T01:57:42;100597.22;;;1.01;100.00
19086;BME280;9675;51.538;6.728;2024-01-16T02:00:10;100603.31;;;1.03;100.00
19086;BME280;9675;51.538;6.728;2024-01-16T02:02:39;100599.00;;;1.02;100.00
19086;BME280;9675;51.538;6.728;2024-01-16T02:05:07;100595.72;;;1.03;100.00
19086;BME280;9675;51.538;6.728;2024-01-16T02:07:36;100595.72;;;1.03;100.00
19086;BME280;9675;51.538;6.728;2024-01-16T02:10:04;100597.47;;;1.04;100.00
19086;BME280;9675;51.538;6.728;2024-01-16T02:12:32;100600.00;;;1.04;100.00
19086;BME280;9675;51.538;6.728;2024-01-16T02:14:59;100600.91;;;1.05;100.00
19086;BME280;9675;51.538;6.728;2024-01-16T02:17:26;100597.75;;;1.07;100.00
19086;BME280;9675;51.538;6.728;2024-01-16T02:19:53;100595.19;;;1.07;100.00
19086;BME280;9675;51.538;6.728;2024-01-16T02:22:23;100590.88;;;1.06;100.00
19086;BME280;9675;51.538;6.728;2024-01-16T02:24:55;100597.97;;;1.10;100.00
19086;BME280;9675;51.538;6.728;2024-01-16T02:27:23;100599.53;;;1.08;100.00
19086;BME280;9675;51.538;6.728;2024-01-16T02:29:50;100588.50;;;1.08;100.00
19086;BME280;9675;51.538;6.728;2024-01-16T02:32:17;100590.13;;;1.07;100.00
19086;BME280;9675;51.538;6.728;2024-01-16T02:34:44;100590.88;;;1.06;100.00
19086;BME280;9675;51.538;6.728;2024-01-16T02:37:11;100576.44;;;1.05;100.00
19086;BME280;9675;51.538;6.728;2024-01-16T02:39:38;100579.72;;;1.04;100.00
19086;BME280;9675;51.538;6.728;2024-01-16T02:42:07;100578.72;;;1.02;100.00
19086;BME280;9675;51.538;6.728;2024-01-16T02:44:34;100579.72;;;1.04;100.00
19086;BME280;9675;51.538;6.728;2024-01-16T02:47:01;100583.03;;;1.03;100.00
19086;BME280;9675;51.538;6.728;2024-01-16T02:49:28;100576.28;;;1.04;100.00
19086;BME280;9675;51.538;6.728;2024-01-16T02:51:57;100577.47;;;1.07;100.00
19086;BME280;9675;51.538;6.728;2024-01-16T02:54:24;100582.41;;;1.06;100.00
19086;BME280;9675;51.538;6.728;2024-01-16T02:56:51;100582.53;;;1.07;100.00
19086;BME280;9675;51.538;6.728;2024-01-16T02:59:19;100583.53;;;1.09;100.00
19086;BME280;9675;51.538;6.728;2024-01-16T03:01:46;100583.41;;;1.08;100.00
19086;BME280;9675;51.538;6.728;2024-01-16T03:04:13;100582.53;;;1.07;100.00
19086;BME280;9675;51.538;6.728;2024-01-16T03:06:40;100582.53;;;1.07;100.00
19086;BME280;9675;51.538;6.728;2024-01-16T03:09:07;100587.59;;;1.07;100.00
19086;BME280;9675;51.538;6.728;2024-01-16T03:11:34;100577.97;;;1.03;100.00
19086;BME280;9675;51.538;6.728;2024-01-16T03:14:01;100584.94;;;1.06;100.00
19086;BME280;9675;51.538;6.728;2024-01-16T03:16:31;100577.19;;;1.04;100.00
19086;BME280;9675;51.538;6.728;2024-01-16T03:18:58;100579.63;;;1.03;100.00
19086;BME280;9675;51.538;6.728;2024-01-16T03:21:26;100580.75;;;1.06;100.00
19086;BME280;9675;51.538;6.728;2024-01-16T03:23:53;100583.16;;;1.05;100.00
19086;BME280;9675;51.538;6.728;2024-01-16T03:26:20;100594.19;;;1.05;100.00
19086;BME280;9675;51.538;6.728;2024-01-16T03:28:47;100590.00;;;1.06;100.00
19086;BME280;9675;51.538;6.728;2024-01-16T03:31:14;100590.66;;;1.03;100.00
19086;BME280;9675;51.538;6.728;2024-01-16T03:33:43;100587.22;;;1.03;100.00
19086;BME280;9675;51.538;6.728;2024-01-16T03:36:11;100579.09;;;0.97;100.00
19086;BME280;9675;51.538;6.728;2024-01-16T03:38:38;100582.03;;;1.01;100.00
19086;BME280;9675;51.538;6.728;2024-01-16T03:41:06;100579.63;;;1.03;100.00
19086;BME280;9675;51.538;6.728;2024-01-16T03:43:33;100582.16;;;1.03;100.00
19086;BME280;9675;51.538;6.728;2024-01-16T03:46:01;100576.19;;;1.02;100.00
19086;BME280;9675;51.538;6.728;2024-01-16T03:48:28;100584.78;;;1.04;100.00
19086;BME280;9675;51.538;6.728;2024-01-16T03:50:56;100584.03;;;1.05;100.00
19086;BME280;9675;51.538;6.728;2024-01-16T03:53:23;100589.88;;;1.04;100.00
19086;BME280;9675;51.538;6.728;2024-01-16T03:55:51;100581.25;;;1.02;100.00
19086;BME280;9675;51.538;6.728;2024-01-16T03:58:18;100585.59;;;1.03;100.00
19086;BME280;9675;51.538;6.728;2024-01-16T04:00:46;100589.75;;;1.03;100.00
19086;BME280;9675;51.538;6.728;2024-01-16T04:03:13;100585.59;;;1.03;100.00
19086;BME280;9675;51.538;6.728;2024-01-16T04:05:40;100573.00;;;1.05;100.00
19086;BME280;9675;51.538;6.728;2024-01-16T04:08:08;100585.59;;;1.03;100.00
19086;BME280;9675;51.538;6.728;2024-01-16T04:10:35;100590.38;;;1.00;100.00
19086;BME280;9675;51.538;6.728;2024-01-16T04:13:03;100586.19;;;1.01;100.00
19086;BME280;9675;51.538;6.728;2024-01-16T04:15:30;100580.25;;;1.00;100.00
19086;BME280;9675;51.538;6.728;2024-01-16T04:17:57;100571.00;;;1.01;100.00
19086;BME280;9675;51.538;6.728;2024-01-16T04:20:24;100585.44;;;1.02;100.00
19086;BME280;9675;51.538;6.728;2024-01-16T04:22:51;100582.16;;;1.03;100.00
19086;BME280;9675;51.538;6.728;2024-01-16T04:25:20;100586.34;;;1.02;100.00
19086;BME280;9675;51.538;6.728;2024-01-16T04:27:47;100587.09;;;1.01;100.00
19086;BME280;9675;51.538;6.728;2024-01-16T04:30:14;100578.47;;;0.99;100.00
19086;BME280;9675;51.538;6.728;2024-01-16T04:32:41;100576.06;;;1.01;100.00
19086;BME280;9675;51.538;6.728;2024-01-16T04:35:08;100576.19;;;1.02;100.00
19086;BME280;9675;51.538;6.728;2024-01-16T04:37:36;100577.84;;;1.02;100.00
19086;BME280;9675;51.538;6.728;2024-01-16T04:40:04;100575.16;;;1.00;100.00
19086;BME280;9675;51.538;6.728;2024-01-16T04:42:33;100583.81;;;1.02;100.00
19086;BME280;9675;51.538;6.728;2024-01-16T04:45:00;100580.38;;;1.02;100.00
19086;BME280;9675;51.538;6.728;2024-01-16T04:47:27;100575.16;;;1.00;100.00
19086;BME280;9675;51.538;6.728;2024-01-16T04:49:54;100576.94;;;1.01;100.00
19086;BME280;9675;51.538;6.728;2024-01-16T04:52:21;100571.13;;;1.02;100.00
19086;BME280;9675;51.538;6.728;2024-01-16T04:54:48;100564.13;;;1.00;100.00
19086;BME280;9675;51.538;6.728;2024-01-16T04:57:15;100565.03;;;1.00;100.00
19086;BME280;9675;51.538;6.728;2024-01-16T04:59:43;100575.81;;;0.98;100.00
19086;BME280;9675;51.538;6.728;2024-01-16T05:02:11;100563.75;;;0.95;100.00
19086;BME280;9675;51.538;6.728;2024-01-16T05:04:39;100569.88;;;0.97;100.00
19086;BME280;9675;51.538;6.728;2024-01-16T05:07:06;100571.66;;;0.98;100.00
19086;BME280;9675;51.538;6.728;2024-01-16T05:09:33;100571.00;;;1.01;100.00
19086;BME280;9675;51.538;6.728;2024-01-16T05:12:01;100571.88;;;1.01;100.00
19086;BME280;9675;51.538;6.728;2024-01-16T05:14:28;100565.03;;;1.00;100.00
19086;BME280;9675;51.538;6.728;2024-01-16T05:16:56;100559.97;;;1.00;100.00
19086;BME280;9675;51.538;6.728;2024-01-16T05:19:23;100558.44;;;1.02;100.00
19086;BME280;9675;51.538;6.728;2024-01-16T05:21:50;100557.69;;;1.03;100.00
19086;BME280;9675;51.538;6.728;2024-01-16T05:24:17;100556.91;;;1.04;100.00
19086;BME280;9675;51.538;6.728;2024-01-16T05:26:44;100556.03;;;1.04;100.00
19086;BME280;9675;51.538;6.728;2024-01-16T05:29:11;100560.22;;;1.03;100.00
19086;BME280;9675;51.538;6.728;2024-01-16T05:31:42;100553.00;;;0.98;100.00
19086;BME280;9675;51.538;6.728;2024-01-16T05:34:10;100559.97;;;1.00;100.00
19086;BME280;9675;51.538;6.728;2024-01-16T05:36:38;100556.44;;;0.98;100.00
19086;BME280;9675;51.538;6.728;2024-01-16T05:39:05;100557.19;;;0.97;100.00
19086;BME280;9675;51.538;6.728;2024-01-16T05:41:33;100553.00;;;0.98;100.00
19086;BME280;9675;51.538;6.728;2024-01-16T05:44:00;100554.66;;;0.97;100.00
19086;BME280;9675;51.538;6.728;2024-01-16T05:46:29;100551.38;;;0.98;100.00
19086;BME280;9675;51.538;6.728;2024-01-16T05:48:56;100550.47;;;0.98;100.00
19086;BME280;9675;51.538;6.728;2024-01-16T05:51:27;100543.63;;;0.97;100.00
19086;BME280;9675;51.538;6.728;2024-01-16T05:53:54;100536.16;;;0.98;100.00
19086;BME280;9675;51.538;6.728;2024-01-16T05:56:21;100542.97;;;0.99;100.00
19086;BME280;9675;51.538;6.728;2024-01-16T05:58:48;100534.38;;;0.97;100.00
19086;BME280;9675;51.538;6.728;2024-01-16T06:01:15;100542.97;;;0.99;100.00
19086;BME280;9675;51.538;6.728;2024-01-16T06:03:42;100544.63;;;0.99;100.00
19086;BME280;9675;51.538;6.728;2024-01-16T06:06:12;100542.75;;;0.96;100.00
19086;BME280;9675;51.538;6.728;2024-01-16T06:08:40;100536.78;;;0.96;100.00
19086;BME280;9675;51.538;6.728;2024-01-16T06:11:07;100543.50;;;0.95;100.00
19086;BME280;9675;51.538;6.728;2024-01-16T06:13:34;100546.28;;;0.98;100.00
19086;BME280;9675;51.538;6.728;2024-01-16T06:16:01;100537.66;;;0.96;100.00
19086;BME280;9675;51.538;6.728;2024-01-16T06:18:29;100537.53;;;0.95;100.00
19086;BME280;9675;51.538;6.728;2024-01-16T06:20:56;100542.75;;;0.96;100.00
19086;BME280;9675;51.538;6.728;2024-01-16T06:23:23;100544.50;;;0.97;100.00
19086;BME280;9675;51.538;6.728;2024-01-16T06:25:52;100529.81;;;0.93;100.00
19086;BME280;9675;51.538;6.728;2024-01-16T06:28:19;100537.44;;;0.93;100.00
19086;BME280;9675;51.538;6.728;2024-01-16T06:30:46;100532.34;;;0.93;100.00
19086;BME280;9675;51.538;6.728;2024-01-16T06:33:13;100532.22;;;0.92;100.00
19086;BME280;9675;51.538;6.728;2024-01-16T06:35:40;100528.81;;;0.91;100.00
19086;BME280;9675;51.538;6.728;2024-01-16T06:38:07;100531.47;;;0.93;100.00
19086;BME280;9675;51.538;6.728;2024-01-16T06:40:34;100530.44;;;0.91;100.00
19086;BME280;9675;51.538;6.728;2024-01-16T06:43:03;100538.94;;;0.91;100.00
19086;BME280;9675;51.538;6.728;2024-01-16T06:45:31;100538.06;;;0.91;100.00
19086;BME280;9675;51.538;6.728;2024-01-16T06:47:58;100542.00;;;0.87;100.00
19086;BME280;9675;51.538;6.728;2024-01-16T06:50:25;100540.97;;;0.85;100.00
19086;BME280;9675;51.538;6.728;2024-01-16T06:52:52;100547.53;;;0.83;100.00
19086;BME280;9675;51.538;6.728;2024-01-16T06:55:19;100544.91;;;0.81;100.00
19086;BME280;9675;51.538;6.728;2024-01-16T06:57:46;100550.88;;;0.82;100.00
19086;BME280;9675;51.538;6.728;2024-01-16T07:00:16;100546.41;;;0.79;100.00
19086;BME280;9675;51.538;6.728;2024-01-16T07:02:43;100548.06;;;0.79;100.00
19086;BME280;9675;51.538;6.728;2024-01-16T07:05:11;100552.88;;;0.76;100.00
19086;BME280;9675;51.538;6.728;2024-01-16T07:07:38;100546.91;;;0.75;100.00
19086;BME280;9675;51.538;6.728;2024-01-16T07:10:08;100563.41;;;0.80;100.00
19086;BME280;9675;51.538;6.728;2024-01-16T07:12:39;100562.50;;;0.80;100.00
19086;BME280;9675;51.538;6.728;2024-01-16T07:15:07;100563.00;;;0.76;100.00
19086;BME280;9675;51.538;6.728;2024-01-16T07:17:36;100566.31;;;0.75;100.00
19086;BME280;9675;51.538;6.728;2024-01-16T07:20:04;100577.94;;;0.73;100.00
19086;BME280;9675;51.538;6.728;2024-01-16T07:22:31;100576.81;;;0.69;100.00
19086;BME280;9675;51.538;6.728;2024-01-16T07:24:59;100578.84;;;0.73;100.00
19086;BME280;9675;51.538;6.728;2024-01-16T07:27:26;100577.94;;;0.73;100.00
19086;BME280;9675;51.538;6.728;2024-01-16T07:29:53;100583.91;;;0.73;100.00
19086;BME280;9675;51.538;6.728;2024-01-16T07:32:22;100586.34;;;0.72;100.00
19086;BME280;9675;51.538;6.728;2024-01-16T07:34:50;100586.34;;;0.72;100.00
19086;BME280;9675;51.538;6.728;2024-01-16T07:37:18;100586.34;;;0.72;100.00
19086;BME280;9675;51.538;6.728;2024-01-16T07:39:45;100586.19;;;0.70;100.00
19086;BME280;9675;51.538;6.728;2024-01-16T07:42:12;100586.94;;;0.69;100.00
19086;BME280;9675;51.538;6.728;2024-01-16T07:44:40;100596.19;;;0.69;100.00
19086;BME280;9675;51.538;6.728;2024-01-16T07:47:07;100592.00;;;0.69;100.00
19086;BME280;9675;51.538;6.728;2024-01-16T07:49:34;100591.88;;;0.68;100.00
19086;BME280;9675;51.538;6.728;2024-01-16T07:52:03;100597.06;;;0.69;100.00
19086;BME280;9675;51.538;6.728;2024-01-16T07:54:30;100590.38;;;0.70;100.00
19086;BME280;9675;51.538;6.728;2024-01-16T07:56:57;100591.13;;;0.69;100.00
19086;BME280;9675;51.538;6.728;2024-01-16T07:59:25;100595.28;;;0.68;100.00
19086;BME280;9675;51.538;6.728;2024-01-16T08:01:52;100593.56;;;0.67;100.00
19086;BME280;9675;51.538;6.728;2024-01-16T08:04:20;100588.34;;;0.66;100.00
19086;BME280;9675;51.538;6.728;2024-01-16T08:06:48;100594.16;;;0.65;100.00
19086;BME280;9675;51.538;6.728;2024-01-16T08:09:16;100595.94;;;0.66;100.00
19086;BME280;9675;51.538;6.728;2024-01-16T08:11:43;100594.03;;;0.63;100.00
19086;BME280;9675;51.538;6.728;2024-01-16T08:14:10;100599.97;;;0.64;100.00
19086;BME280;9675;51.538;6.728;2024-01-16T08:16:37;100604.31;;;0.65;100.00
19086;BME280;9675;51.538;6.728;2024-01-16T08:19:04;100596.84;;;0.66;100.00
19086;BME280;9675;51.538;6.728;2024-01-16T08:21:31;100602.53;;;0.64;100.00
19086;BME280;9675;51.538;6.728;2024-01-16T08:23:58;100602.53;;;0.64;100.00
19086;BME280;9675;51.538;6.728;2024-01-16T08:26:27;100601.63;;;0.63;100.00
19086;BME280;9675;51.538;6.728;2024-01-16T08:28:54;100614.44;;;0.65;100.00
19086;BME280;9675;51.538;6.728;2024-01-16T08:31:22;100611.00;;;0.64;100.00
19086;BME280;9675;51.538;6.728;2024-01-16T08:33:49;100601.53;;;0.62;100.00
19086;BME280;9675;51.538;6.728;2024-01-16T08:36:16;100603.25;;;0.63;100.00
19086;BME280;9675;51.538;6.728;2024-01-16T08:38:43;100610.13;;;0.64;100.00
19086;BME280;9675;51.538;6.728;2024-01-16T08:41:10;100618.47;;;0.63;100.00
19086;BME280;9675;51.538;6.728;2024-01-16T08:43:38;100608.22;;;0.61;100.00
19086;BME280;9675;51.538;6.728;2024-01-16T08:46:05;100619.25;;;0.62;100.00
19086;BME280;9675;51.538;6.728;2024-01-16T08:48:32;100620.75;;;0.60;100.00
19086;BME280;9675;51.538;6.728;2024-01-16T08:50:59;100619.88;;;0.59;100.00
19086;BME280;9675;51.538;6.728;2024-01-16T08:53:26;100608.84;;;0.59;100.00
19086;BME280;9675;51.538;6.728;2024-01-16T08:55:53;100609.59;;;0.58;100.00
19086;BME280;9675;51.538;6.728;2024-01-16T08:58:20;100618.84;;;0.57;100.00
19086;BME280;9675;51.538;6.728;2024-01-16T09:00:49;100613.00;;;0.58;100.00
19086;BME280;9675;51.538;6.728;2024-01-16T09:03:16;100615.69;;;0.60;100.00
19086;BME280;9675;51.538;6.728;2024-01-16T09:05:44;100610.75;;;0.61;100.00
19086;BME280;9675;51.538;6.728;2024-01-16T09:08:11;100604.66;;;0.59;100.00
19086;BME280;9675;51.538;6.728;2024-01-16T09:10:38;100609.72;;;0.59;100.00
19086;BME280;9675;51.538;6.728;2024-01-16T09:13:05;100613.66;;;0.56;100.00
19086;BME280;9675;51.538;6.728;2024-01-16T09:15:32;100610.25;;;0.55;100.00
19086;BME280;9675;51.538;6.728;2024-01-16T09:18:01;100612.13;;;0.58;100.00
19086;BME280;9675;51.538;6.728;2024-01-16T09:20:28;100604.66;;;0.59;100.00
19086;BME280;9675;51.538;6.728;2024-01-16T09:22:55;100611.38;;;0.59;100.00
19086;BME280;9675;51.538;6.728;2024-01-16T09:25:22;100618.22;;;0.60;100.00
19086;BME280;9675;51.538;6.728;2024-01-16T09:27:50;100613.91;;;0.59;100.00
19086;BME280;9675;51.538;6.728;2024-01-16T09:30:18;100610.63;;;0.60;100.00
19086;BME280;9675;51.538;6.728;2024-01-16T09:32:48;100612.41;;;0.61;100.00
19086;BME280;9675;51.538;6.728;2024-01-16T09:35:16;100610.63;;;0.60;100.00
19086;BME280;9675;51.538;6.728;2024-01-16T09:37:43;100615.69;;;0.60;100.00
19086;BME280;9675;51.538;6.728;2024-01-16T09:40:11;100617.47;;;0.61;100.00
19086;BME280;9675;51.538;6.728;2024-01-16T09:42:39;100613.91;;;0.59;100.00
19086;BME280;9675;51.538;6.728;2024-01-16T09:45:09;100608.69;;;0.57;100.00
19086;BME280;9675;51.538;6.728;2024-01-16T09:47:38;100617.47;;;0.61;100.00
19086;BME280;9675;51.538;6.728;2024-01-16T09:50:06;100606.44;;;0.60;100.00
19086;BME280;9675;51.538;6.728;2024-01-16T09:52:35;100618.47;;;0.63;100.00
19086;BME280;9675;51.538;6.728;2024-01-16T09:55:02;100607.34;;;0.61;100.00
19086;BME280;9675;51.538;6.728;2024-01-16T09:57:31;100610.88;;;0.63;100.00
19086;BME280;9675;51.538;6.728;2024-01-16T10:00:00;100610.88;;;0.63;100.00
19086;BME280;9675;51.538;6.728;2024-01-16T10:02:29;100607.34;;;0.61;100.00
19086;BME280;9675;51.538;6.728;2024-01-16T10:04:56;100599.75;;;0.61;100.00
19086;BME280;9675;51.538;6.728;2024-01-16T10:07:25;100601.38;;;0.60;100.00
19086;BME280;9675;51.538;6.728;2024-01-16T10:09:57;100603.25;;;0.63;100.00
19086;BME280;9675;51.538;6.728;2024-01-16T10:12:25;100605.81;;;0.63;100.00
19086;BME280;9675;51.538;6.728;2024-01-16T10:14:55;100605.81;;;0.63;100.00
19086;BME280;9675;51.538;6.728;2024-01-16T10:17:23;100602.53;;;0.64;100.00
19086;BME280;9675;51.538;6.728;2024-01-16T10:20:02;100602.38;;;0.62;100.00
19086;BME280;9675;51.538;6.728;2024-01-16T10:22:31;100600.72;;;0.63;100.00
19086;BME280;9675;51.538;6.728;2024-01-16T10:25:07;100594.78;;;0.62;100.00
19086;BME280;9675;51.538;6.728;2024-01-16T10:27:35;100587.31;;;0.64;100.00
19086;BME280;9675;51.538;6.728;2024-01-16T10:30:03;100588.47;;;0.67;100.00
19086;BME280;9675;51.538;6.728;2024-01-16T10:32:34;100587.59;;;0.67;100.00
19086;BME280;9675;51.538;6.728;2024-01-16T10:35:07;100584.28;;;0.68;100.00
19086;BME280;9675;51.538;6.728;2024-01-16T10:37:43;100588.72;;;0.70;100.00
19086;BME280;9675;51.538;6.728;2024-01-16T10:40:15;100583.81;;;0.72;100.00
19086;BME280;9675;51.538;6.728;2024-01-16T10:42:44;100593.16;;;0.73;100.00
19086;BME280;9675;51.538;6.728;2024-01-16T10:45:17;100591.63;;;0.75;100.00
19086;BME280;9675;51.538;6.728;2024-01-16T10:47:46;100592.66;;;0.77;100.00
19086;BME280;9675;51.538;6.728;2024-01-16T10:50:13;100594.69;;;0.81;100.00
19086;BME280;9675;51.538;6.728;2024-01-16T10:52:48;100580.63;;;0.84;100.00
19086;BME280;9675;51.538;6.728;2024-01-16T10:55:21;100570.84;;;0.89;100.00
19086;BME280;9675;51.538;6.728;2024-01-16T10:57:49;100579.72;;;0.94;100.00
19086;BME280;9675;51.538;6.728;2024-01-16T11:00:20;100570.09;;;1.00;100.00
19086;BME280;9675;51.538;6.728;2024-01-16T11:02:59;100564.66;;;1.06;100.00
19086;BME280;9675;51.538;6.728;2024-01-16T11:05:31;100554.78;;;1.09;100.00
19086;BME280;9675;51.538;6.728;2024-01-16T11:07:59;100563.13;;;1.18;100.00
19086;BME280;9675;51.538;6.728;2024-01-16T11:10:31;100564.50;;;1.24;100.00
19086;BME280;9675;51.538;6.728;2024-01-16T11:13:01;100558.94;;;1.28;100.00
19086;BME280;9675;51.538;6.728;2024-01-16T11:15:31;100562.06;;;1.36;100.00
19086;BME280;9675;51.538;6.728;2024-01-16T11:17:59;100554.19;;;1.43;100.00
19086;BME280;9675;51.538;6.728;2024-01-16T11:20:28;100557.34;;;1.51;100.00
19086;BME280;9675;51.538;6.728;2024-01-16T11:22:57;100567.34;;;1.59;100.00
19086;BME280;9675;51.538;6.728;2024-01-16T11:25:33;100574.03;;;1.69;100.00
19086;BME280;9675;51.538;6.728;2024-01-16T11:28:09;100574.53;;;1.75;100.00
19086;BME280;9675;51.538;6.728;2024-01-16T11:30:37;100571.97;;;1.85;100.00
19086;BME280;9675;51.538;6.728;2024-01-16T11:33:04;100569.91;;;1.91;100.00
19086;BME280;9675;51.538;6.728;2024-01-16T11:35:33;100564.78;;;2.01;100.00
19086;BME280;9675;51.538;6.728;2024-01-16T11:38:10;100560.41;;;2.10;100.00
19086;BME280;9675;51.538;6.728;2024-01-16T11:40:39;100557.59;;;2.18;100.00
19086;BME280;9675;51.538;6.728;2024-01-16T11:43:37;100549.91;;;2.28;100.00
19086;BME280;9675;51.538;6.728;2024-01-16T11:46:06;100540.47;;;2.37;100.00
19086;BME280;9675;51.538;6.728;2024-01-16T11:48:34;100524.13;;;2.45;100.00
19086;BME280;9675;51.538;6.728;2024-01-16T11:51:24;100534.97;;;2.54;100.00
19086;BME280;9675;51.538;6.728;2024-01-16T11:53:51;100529.38;;;2.58;100.00
19086;BME280;9675;51.538;6.728;2024-01-16T11:56:46;100525.00;;;2.67;100.00
19086;BME280;9675;51.538;6.728;2024-01-16T11:59:58;100524.78;;;2.76;100.00
19086;BME280;9675;51.538;6.728;2024-01-16T12:02:49;100521.25;;;2.85;100.00
19086;BME280;9675;51.538;6.728;2024-01-16T12:05:17;100528.03;;;2.96;100.00
19086;BME280;9675;51.538;6.728;2024-01-16T12:07:49;100522.63;;;3.04;100.00
19086;BME280;9675;51.538;6.728;2024-01-16T12:10:19;100522.97;;;3.08;100.00
19086;BME280;9675;51.538;6.728;2024-01-16T12:12:50;100510.72;;;3.14;100.00
19086;BME280;9675;51.538;6.728;2024-01-16T12:15:19;100498.44;;;3.20;100.00
19086;BME280;9675;51.538;6.728;2024-01-16T12:17:57;100501.75;;;3.31;100.00
19086;BME280;9675;51.538;6.728;2024-01-16T12:20:26;100503.19;;;3.39;100.00
19086;BME280;9675;51.538;6.728;2024-01-16T12:22:57;100501.28;;;3.48;100.00
19086;BME280;9675;51.538;6.728;2024-01-16T12:25:24;100501.97;;;3.57;100.00
19086;BME280;9675;51.538;6.728;2024-01-16T12:27:58;100493.97;;;3.64;100.00
19086;BME280;9675;51.538;6.728;2024-01-16T12:30:26;100487.78;;;3.72;100.00
19086;BME280;9675;51.538;6.728;2024-01-16T12:33:04;100472.13;;;3.79;100.00
19086;BME280;9675;51.538;6.728;2024-01-16T12:35:34;100469.25;;;3.87;100.00
19086;BME280;9675;51.538;6.728;2024-01-16T12:38:02;100472.31;;;3.94;100.00
19086;BME280;9675;51.538;6.728;2024-01-16T12:40:31;100473.63;;;4.01;100.00
19086;BME280;9675;51.538;6.728;2024-01-16T12:43:00;100475.59;;;4.05;100.00
19086;BME280;9675;51.538;6.728;2024-01-16T12:45:27;100471.72;;;4.10;100.00
19086;BME280;9675;51.538;6.728;2024-01-16T12:47:55;100468.63;;;4.14;100.00
19086;BME280;9675;51.538;6.728;2024-01-16T12:50:27;100464.72;;;4.19;100.00
19086;BME280;9675;51.538;6.728;2024-01-16T12:53:05;100445.22;;;4.19;100.00
19086;BME280;9675;51.538;6.728;2024-01-16T12:55:34;100445.53;;;4.24;100.00
19086;BME280;9675;51.538;6.728;2024-01-16T12:58:17;100450.81;;;4.27;100.00
19086;BME280;9675;51.538;6.728;2024-01-16T13:00:44;100446.81;;;4.31;100.00
19086;BME280;9675;51.538;6.728;2024-01-16T13:03:19;100458.19;;;4.36;100.00
19086;BME280;9675;51.538;6.728;2024-01-16T13:05:55;100454.97;;;4.38;100.00
19086;BME280;9675;51.538;6.728;2024-01-16T13:08:23;100458.72;;;4.43;100.00